54NC weather

Dillard Airport
Winfall, North Carolina, United States

Public forecast

Using degrees Fahrenheit for public forecast. Weather courtesy of forecast.io.

METAR (pilot weather report)

Closest report is Elizabeth City Regional Airport & Coast Guard Air Station, 11.8 nm (21.9 km) E. Retrieved 2019/04/26 04:54 UTC (21 minutes ago):

KECG 260454Z AUTO 21011KT 10SM CLR 23/16 A2985 RMK AO2 SLP107 T02280161 403110150

TAF (pilot weather forecast)

Forecast is more than 12 hours old.

Closest forecast is Elizabeth City Regional Airport & Coast Guard Air Station, 11.8 nm (21.9 km) E. Retrieved 2019/04/25 00:30 UTC (1 day ago):

TAF TAF KECG 252325Z 2600/2624 21007KT P6SM BKN200 FM261400 19018G27KT P6SM BKN070 FM261700 19020G32KT 4SM SHRA BKN060 FM262200 22017G26KT 4SM SHRA OVC050